sensor_id;sensor_type;location;lat;lon;timestamp;temperature;humidity
51619;DHT22;38518;53.164;5.430;2023-12-29T00:01:58;9.40;99.90
51619;DHT22;38518;53.164;5.430;2023-12-29T00:04:27;9.60;99.90
51619;DHT22;38518;53.164;5.430;2023-12-29T00:06:56;9.40;99.90
51619;DHT22;38518;53.164;5.430;2023-12-29T00:09:21;9.40;99.90
51619;DHT22;38518;53.164;5.430;2023-12-29T00:11:48;9.40;99.90
51619;DHT22;38518;53.164;5.430;2023-12-29T00:14:14;9.40;99.90
51619;DHT22;38518;53.164;5.430;2023-12-29T00:16:40;9.90;99.90
51619;DHT22;38518;53.164;5.430;2023-12-29T00:19:06;9.30;99.90
51619;DHT22;38518;53.164;5.430;2023-12-29T00:21:32;9.40;99.90
51619;DHT22;38518;53.164;5.430;2023-12-29T00:23:58;9.50;99.90
51619;DHT22;38518;53.164;5.430;2023-12-29T00:26:23;9.30;99.90
51619;DHT22;38518;53.164;5.430;2023-12-29T00:28:50;9.30;99.90
51619;DHT22;38518;53.164;5.430;2023-12-29T00:31:16;9.40;99.90
51619;DHT22;38518;53.164;5.430;2023-12-29T00:33:43;9.30;99.90
51619;DHT22;38518;53.164;5.430;2023-12-29T00:36:14;9.40;99.90
51619;DHT22;38518;53.164;5.430;2023-12-29T00:38:40;9.40;99.90
51619;DHT22;38518;53.164;5.430;2023-12-29T00:41:06;9.40;99.90
51619;DHT22;38518;53.164;5.430;2023-12-29T00:43:32;9.40;99.90
51619;DHT22;38518;53.164;5.430;2023-12-29T00:45:58;9.40;99.90
51619;DHT22;38518;53.164;5.430;2023-12-29T00:48:24;9.30;99.90
51619;DHT22;38518;53.164;5.430;2023-12-29T00:50:49;9.30;99.90
51619;DHT22;38518;53.164;5.430;2023-12-29T00:53:15;9.30;99.90
51619;DHT22;38518;53.164;5.430;2023-12-29T00:55:41;9.30;99.90
51619;DHT22;38518;53.164;5.430;2023-12-29T00:58:07;9.20;99.90
51619;DHT22;38518;53.164;5.430;2023-12-29T01:00:32;9.20;99.90
51619;DHT22;38518;53.164;5.430;2023-12-29T01:02:58;9.30;99.90
51619;DHT22;38518;53.164;5.430;2023-12-29T01:05:24;9.30;99.90
51619;DHT22;38518;53.164;5.430;2023-12-29T01:07:50;9.30;99.90
51619;DHT22;38518;53.164;5.430;2023-12-29T01:10:16;9.30;99.90
51619;DHT22;38518;53.164;5.430;2023-12-29T01:12:41;9.30;99.90
51619;DHT22;38518;53.164;5.430;2023-12-29T01:15:07;9.30;99.90
51619;DHT22;38518;53.164;5.430;2023-12-29T01:17:36;9.30;99.90
51619;DHT22;38518;53.164;5.430;2023-12-29T01:20:02;9.40;99.90
51619;DHT22;38518;53.164;5.430;2023-12-29T01:22:30;9.40;99.90
51619;DHT22;38518;53.164;5.430;2023-12-29T01:24:55;9.30;99.90
51619;DHT22;38518;53.164;5.430;2023-12-29T01:27:21;9.30;99.90
51619;DHT22;38518;53.164;5.430;2023-12-29T01:29:47;9.30;99.90
51619;DHT22;38518;53.164;5.430;2023-12-29T01:32:13;9.30;99.90
51619;DHT22;38518;53.164;5.430;2023-12-29T01:34:38;9.20;99.90
51619;DHT22;38518;53.164;5.430;2023-12-29T01:37:04;9.20;99.90
51619;DHT22;38518;53.164;5.430;2023-12-29T01:39:30;9.10;99.90
51619;DHT22;38518;53.164;5.430;2023-12-29T01:41:56;9.10;99.90
51619;DHT22;38518;53.164;5.430;2023-12-29T01:44:22;9.10;99.90
51619;DHT22;38518;53.164;5.430;2023-12-29T01:46:56;9.00;99.90
51619;DHT22;38518;53.164;5.430;2023-12-29T01:49:24;9.00;99.90
51619;DHT22;38518;53.164;5.430;2023-12-29T01:51:57;9.00;99.90
51619;DHT22;38518;53.164;5.430;2023-12-29T01:54:25;9.00;99.90
51619;DHT22;38518;53.164;5.430;2023-12-29T01:56:52;9.00;99.90
51619;DHT22;38518;53.164;5.430;2023-12-29T01:59:21;9.00;99.90
51619;DHT22;38518;53.164;5.430;2023-12-29T02:01:50;9.00;99.90
51619;DHT22;38518;53.164;5.430;2023-12-29T02:04:17;9.00;99.90
51619;DHT22;38518;53.164;5.430;2023-12-29T02:06:44;9.00;99.90
51619;DHT22;38518;53.164;5.430;2023-12-29T02:09:11;8.90;99.90
51619;DHT22;38518;53.164;5.430;2023-12-29T02:11:38;8.80;99.90
51619;DHT22;38518;53.164;5.430;2023-12-29T02:14:04;8.90;99.90
51619;DHT22;38518;53.164;5.430;2023-12-29T02:16:59;8.90;99.90
51619;DHT22;38518;53.164;5.430;2023-12-29T02:19:38;8.80;99.90
51619;DHT22;38518;53.164;5.430;2023-12-29T02:22:06;9.60;99.90
51619;DHT22;38518;53.164;5.430;2023-12-29T02:24:34;8.90;99.90
51619;DHT22;38518;53.164;5.430;2023-12-29T02:27:33;9.00;99.90
51619;DHT22;38518;53.164;5.430;2023-12-29T02:32:59;9.10;99.90
51619;DHT22;38518;53.164;5.430;2023-12-29T02:35:28;9.10;99.90
51619;DHT22;38518;53.164;5.430;2023-12-29T02:37:58;9.10;99.90
51619;DHT22;38518;53.164;5.430;2023-12-29T02:40:25;9.20;99.90
51619;DHT22;38518;53.164;5.430;2023-12-29T02:42:52;9.10;99.90
51619;DHT22;38518;53.164;5.430;2023-12-29T02:45:18;9.00;99.90
51619;DHT22;38518;53.164;5.430;2023-12-29T02:47:44;9.10;99.90
51619;DHT22;38518;53.164;5.430;2023-12-29T02:50:10;9.00;99.90
51619;DHT22;38518;53.164;5.430;2023-12-29T02:52:37;9.00;99.90
51619;DHT22;38518;53.164;5.430;2023-12-29T02:55:03;8.90;99.90
51619;DHT22;38518;53.164;5.430;2023-12-29T02:57:29;8.90;99.90
51619;DHT22;38518;53.164;5.430;2023-12-29T02:59:56;9.00;99.90
51619;DHT22;38518;53.164;5.430;2023-12-29T03:02:22;9.00;99.90
51619;DHT22;38518;53.164;5.430;2023-12-29T03:04:48;9.20;99.90
51619;DHT22;38518;53.164;5.430;2023-12-29T03:07:14;9.00;99.90
51619;DHT22;38518;53.164;5.430;2023-12-29T03:09:40;9.00;99.90
51619;DHT22;38518;53.164;5.430;2023-12-29T03:12:06;9.00;99.90
51619;DHT22;38518;53.164;5.430;2023-12-29T03:14:32;9.00;99.90
51619;DHT22;38518;53.164;5.430;2023-12-29T03:16:58;9.00;99.90
51619;DHT22;38518;53.164;5.430;2023-12-29T03:19:24;9.00;98.40
51619;DHT22;38518;53.164;5.430;2023-12-29T03:21:50;9.00;99.90
51619;DHT22;38518;53.164;5.430;2023-12-29T03:24:16;9.00;92.60
51619;DHT22;38518;53.164;5.430;2023-12-29T03:26:42;9.00;90.10
51619;DHT22;38518;53.164;5.430;2023-12-29T03:29:08;9.00;74.90
51619;DHT22;38518;53.164;5.430;2023-12-29T03:31:34;8.90;89.90
51619;DHT22;38518;53.164;5.430;2023-12-29T03:33:59;9.40;84.30
51619;DHT22;38518;53.164;5.430;2023-12-29T03:36:25;8.90;90.20
51619;DHT22;38518;53.164;5.430;2023-12-29T03:38:51;8.90;77.30
51619;DHT22;38518;53.164;5.430;2023-12-29T03:41:17;8.90;79.70
51619;DHT22;38518;53.164;5.430;2023-12-29T03:43:42;9.00;70.10
51619;DHT22;38518;53.164;5.430;2023-12-29T03:46:21;9.40;74.60
51619;DHT22;38518;53.164;5.430;2023-12-29T03:48:47;8.90;78.20
51619;DHT22;38518;53.164;5.430;2023-12-29T03:51:13;8.80;64.80
51619;DHT22;38518;53.164;5.430;2023-12-29T03:53:39;8.80;65.00
51619;DHT22;38518;53.164;5.430;2023-12-29T03:56:12;8.90;72.10
51619;DHT22;38518;53.164;5.430;2023-12-29T03:58:38;8.80;58.50
51619;DHT22;38518;53.164;5.430;2023-12-29T04:01:04;8.80;56.50
51619;DHT22;38518;53.164;5.430;2023-12-29T04:03:34;8.80;51.80
51619;DHT22;38518;53.164;5.430;2023-12-29T04:06:00;8.80;45.70
51619;DHT22;38518;53.164;5.430;2023-12-29T04:08:25;8.80;39.70
51619;DHT22;38518;53.164;5.430;2023-12-29T04:10:51;8.80;43.70
51619;DHT22;38518;53.164;5.430;2023-12-29T04:13:17;8.80;40.10
51619;DHT22;38518;53.164;5.430;2023-12-29T04:15:43;8.80;41.70
51619;DHT22;38518;53.164;5.430;2023-12-29T04:18:09;8.80;38.60
51619;DHT22;38518;53.164;5.430;2023-12-29T04:20:34;8.80;36.50
51619;DHT22;38518;53.164;5.430;2023-12-29T04:23:00;8.90;31.20
51619;DHT22;38518;53.164;5.430;2023-12-29T04:25:26;8.90;23.20
51619;DHT22;38518;53.164;5.430;2023-12-29T04:27:52;8.80;20.40
51619;DHT22;38518;53.164;5.430;2023-12-29T04:30:17;8.90;20.50
51619;DHT22;38518;53.164;5.430;2023-12-29T04:32:43;8.90;15.00
51619;DHT22;38518;53.164;5.430;2023-12-29T04:35:09;9.00;13.80
51619;DHT22;38518;53.164;5.430;2023-12-29T04:37:38;8.90;17.70
51619;DHT22;38518;53.164;5.430;2023-12-29T04:40:05;9.00;13.60
51619;DHT22;38518;53.164;5.430;2023-12-29T04:42:31;8.90;18.00
51619;DHT22;38518;53.164;5.430;2023-12-29T04:44:56;9.00;15.10
51619;DHT22;38518;53.164;5.430;2023-12-29T04:47:22;9.00;14.90
51619;DHT22;38518;53.164;5.430;2023-12-29T04:49:48;9.00;8.30
51619;DHT22;38518;53.164;5.430;2023-12-29T04:52:14;9.00;13.60
51619;DHT22;38518;53.164;5.430;2023-12-29T04:54:39;8.90;12.40
51619;DHT22;38518;53.164;5.430;2023-12-29T04:57:05;9.00;9.60
51619;DHT22;38518;53.164;5.430;2023-12-29T04:59:31;8.90;11.30
51619;DHT22;38518;53.164;5.430;2023-12-29T05:01:57;8.90;12.20
51619;DHT22;38518;53.164;5.430;2023-12-29T05:04:22;8.90;14.90
51619;DHT22;38518;53.164;5.430;2023-12-29T05:06:48;8.90;12.60
51619;DHT22;38518;53.164;5.430;2023-12-29T05:09:14;9.00;11.10
51619;DHT22;38518;53.164;5.430;2023-12-29T05:11:40;9.00;15.20
51619;DHT22;38518;53.164;5.430;2023-12-29T05:14:06;9.00;13.90
51619;DHT22;38518;53.164;5.430;2023-12-29T05:16:32;9.00;13.90
51619;DHT22;38518;53.164;5.430;2023-12-29T05:18:57;9.60;17.00
51619;DHT22;38518;53.164;5.430;2023-12-29T05:21:23;8.90;19.40
51619;DHT22;38518;53.164;5.430;2023-12-29T05:23:50;8.90;22.40
51619;DHT22;38518;53.164;5.430;2023-12-29T05:26:15;8.90;23.60
51619;DHT22;38518;53.164;5.430;2023-12-29T05:28:41;9.00;24.80
51619;DHT22;38518;53.164;5.430;2023-12-29T05:31:08;9.40;27.80
51619;DHT22;38518;53.164;5.430;2023-12-29T05:33:33;9.00;28.50
51619;DHT22;38518;53.164;5.430;2023-12-29T05:36:06;9.80;34.60
51619;DHT22;38518;53.164;5.430;2023-12-29T05:38:33;9.00;32.20
51619;DHT22;38518;53.164;5.430;2023-12-29T05:40:59;9.40;40.40
51619;DHT22;38518;53.164;5.430;2023-12-29T05:43:26;9.10;42.60
51619;DHT22;38518;53.164;5.430;2023-12-29T05:45:52;9.00;42.70
51619;DHT22;38518;53.164;5.430;2023-12-29T05:48:18;9.00;45.00
51619;DHT22;38518;53.164;5.430;2023-12-29T05:50:44;9.00;45.10
51619;DHT22;38518;53.164;5.430;2023-12-29T05:53:10;9.00;49.50
51619;DHT22;38518;53.164;5.430;2023-12-29T05:55:35;9.00;42.60
51619;DHT22;38518;53.164;5.430;2023-12-29T05:58:01;9.10;43.00
51619;DHT22;38518;53.164;5.430;2023-12-29T06:00:27;9.10;49.10
51619;DHT22;38518;53.164;5.430;2023-12-29T06:02:53;9.00;45.00
51619;DHT22;38518;53.164;5.430;2023-12-29T06:05:19;9.20;45.00
51619;DHT22;38518;53.164;5.430;2023-12-29T06:07:44;8.20;44.10
51619;DHT22;38518;53.164;5.430;2023-12-29T06:10:11;9.10;39.80
51619;DHT22;38518;53.164;5.430;2023-12-29T06:12:37;9.10;42.10
51619;DHT22;38518;53.164;5.430;2023-12-29T06:15:03;9.10;47.10
51619;DHT22;38518;53.164;5.430;2023-12-29T06:17:29;9.10;48.00
51619;DHT22;38518;53.164;5.430;2023-12-29T06:19:55;9.20;41.40
51619;DHT22;38518;53.164;5.430;2023-12-29T06:22:22;9.10;42.80
51619;DHT22;38518;53.164;5.430;2023-12-29T06:24:47;9.10;42.00
51619;DHT22;38518;53.164;5.430;2023-12-29T06:27:13;9.00;40.40
51619;DHT22;38518;53.164;5.430;2023-12-29T06:29:41;9.10;35.80
51619;DHT22;38518;53.164;5.430;2023-12-29T06:32:08;9.10;38.20
51619;DHT22;38518;53.164;5.430;2023-12-29T06:34:34;9.00;33.10
51619;DHT22;38518;53.164;5.430;2023-12-29T06:36:59;9.00;33.30
51619;DHT22;38518;53.164;5.430;2023-12-29T06:39:26;9.00;34.80
51619;DHT22;38518;53.164;5.430;2023-12-29T06:41:51;9.00;38.30
51619;DHT22;38518;53.164;5.430;2023-12-29T06:44:17;9.10;42.70
51619;DHT22;38518;53.164;5.430;2023-12-29T06:46:43;8.80;42.00
51619;DHT22;38518;53.164;5.430;2023-12-29T06:49:09;9.10;41.20
51619;DHT22;38518;53.164;5.430;2023-12-29T06:51:35;9.10;42.00
51619;DHT22;38518;53.164;5.430;2023-12-29T06:54:06;9.00;32.70
51619;DHT22;38518;53.164;5.430;2023-12-29T06:56:32;9.00;38.20
51619;DHT22;38518;53.164;5.430;2023-12-29T06:58:59;9.10;36.70
51619;DHT22;38518;53.164;5.430;2023-12-29T07:01:25;9.10;36.80
51619;DHT22;38518;53.164;5.430;2023-12-29T07:03:51;9.10;35.00
51619;DHT22;38518;53.164;5.430;2023-12-29T07:06:17;9.20;39.80
51619;DHT22;38518;53.164;5.430;2023-12-29T07:08:43;9.10;41.30
51619;DHT22;38518;53.164;5.430;2023-12-29T07:11:11;9.10;38.20
51619;DHT22;38518;53.164;5.430;2023-12-29T07:13:37;9.10;31.00
51619;DHT22;38518;53.164;5.430;2023-12-29T07:16:04;9.10;34.20
51619;DHT22;38518;53.164;5.430;2023-12-29T07:18:30;9.10;22.90
51619;DHT22;38518;53.164;5.430;2023-12-29T07:20:56;9.10;21.10
51619;DHT22;38518;53.164;5.430;2023-12-29T07:23:21;9.00;22.10
51619;DHT22;38518;53.164;5.430;2023-12-29T07:25:48;9.10;16.20
51619;DHT22;38518;53.164;5.430;2023-12-29T07:28:14;9.00;19.80
51619;DHT22;38518;53.164;5.430;2023-12-29T07:30:39;9.00;12.50
51619;DHT22;38518;53.164;5.430;2023-12-29T07:33:05;9.00;16.10
51619;DHT22;38518;53.164;5.430;2023-12-29T07:35:31;9.00;11.30
51619;DHT22;38518;53.164;5.430;2023-12-29T07:37:57;9.00;1.00
51619;DHT22;38518;53.164;5.430;2023-12-29T07:40:23;9.00;1.00
51619;DHT22;38518;53.164;5.430;2023-12-29T07:42:50;8.90;1.00
51619;DHT22;38518;53.164;5.430;2023-12-29T07:45:16;8.90;3.60
51619;DHT22;38518;53.164;5.430;2023-12-29T07:47:43;8.90;1.00
51619;DHT22;38518;53.164;5.430;2023-12-29T07:50:09;8.90;5.70
51619;DHT22;38518;53.164;5.430;2023-12-29T07:52:35;8.90;1.30
51619;DHT22;38518;53.164;5.430;2023-12-29T07:55:00;9.00;1.00
51619;DHT22;38518;53.164;5.430;2023-12-29T07:57:26;9.00;3.40
51619;DHT22;38518;53.164;5.430;2023-12-29T07:59:55;8.20;2.10
51619;DHT22;38518;53.164;5.430;2023-12-29T08:02:21;8.90;5.00
51619;DHT22;38518;53.164;5.430;2023-12-29T08:04:47;9.00;4.60
51619;DHT22;38518;53.164;5.430;2023-12-29T08:07:14;9.00;2.10
51619;DHT22;38518;53.164;5.430;2023-12-29T08:09:39;9.00;7.20
51619;DHT22;38518;53.164;5.430;2023-12-29T08:12:06;9.00;8.30
51619;DHT22;38518;53.164;5.430;2023-12-29T08:14:31;9.00;7.60
51619;DHT22;38518;53.164;5.430;2023-12-29T08:16:57;8.90;7.00
51619;DHT22;38518;53.164;5.430;2023-12-29T08:19:23;8.90;10.20
51619;DHT22;38518;53.164;5.430;2023-12-29T08:21:50;8.80;11.30
51619;DHT22;38518;53.164;5.430;2023-12-29T08:24:16;8.80;7.70
51619;DHT22;38518;53.164;5.430;2023-12-29T08:26:46;8.80;8.20
51619;DHT22;38518;53.164;5.430;2023-12-29T08:29:15;8.80;8.00
51619;DHT22;38518;53.164;5.430;2023-12-29T08:31:42;8.70;7.90
51619;DHT22;38518;53.164;5.430;2023-12-29T08:34:08;8.80;11.40
51619;DHT22;38518;53.164;5.430;2023-12-29T08:36:34;8.80;15.40
51619;DHT22;38518;53.164;5.430;2023-12-29T08:39:01;8.50;19.50
51619;DHT22;38518;53.164;5.430;2023-12-29T08:41:27;8.80;22.10
51619;DHT22;38518;53.164;5.430;2023-12-29T08:43:53;8.90;28.40
51619;DHT22;38518;53.164;5.430;2023-12-29T08:46:19;8.80;30.10
51619;DHT22;38518;53.164;5.430;2023-12-29T08:48:45;8.90;32.10
51619;DHT22;38518;53.164;5.430;2023-12-29T08:51:11;8.90;33.30
51619;DHT22;38518;53.164;5.430;2023-12-29T08:53:37;8.90;35.30
51619;DHT22;38518;53.164;5.430;2023-12-29T08:56:03;9.00;39.20
51619;DHT22;38518;53.164;5.430;2023-12-29T08:58:29;9.00;38.40
51619;DHT22;38518;53.164;5.430;2023-12-29T09:00:55;9.00;33.40
51619;DHT22;38518;53.164;5.430;2023-12-29T09:03:21;9.00;33.10
51619;DHT22;38518;53.164;5.430;2023-12-29T09:05:47;9.10;29.60
51619;DHT22;38518;53.164;5.430;2023-12-29T09:08:12;9.10;27.00
51619;DHT22;38518;53.164;5.430;2023-12-29T09:10:38;9.10;27.20
51619;DHT22;38518;53.164;5.430;2023-12-29T09:13:04;9.10;25.20
51619;DHT22;38518;53.164;5.430;2023-12-29T09:15:30;9.10;23.00
51619;DHT22;38518;53.164;5.430;2023-12-29T09:17:56;9.20;10.70
51619;DHT22;38518;53.164;5.430;2023-12-29T09:20:22;9.20;5.40
51619;DHT22;38518;53.164;5.430;2023-12-29T09:22:47;9.20;3.90
51619;DHT22;38518;53.164;5.430;2023-12-29T09:25:13;9.30;3.50
51619;DHT22;38518;53.164;5.430;2023-12-29T09:27:39;9.30;3.30
51619;DHT22;38518;53.164;5.430;2023-12-29T09:30:05;9.20;7.50
51619;DHT22;38518;53.164;5.430;2023-12-29T09:32:31;9.20;2.30
51619;DHT22;38518;53.164;5.430;2023-12-29T09:34:57;9.20;2.80
51619;DHT22;38518;53.164;5.430;2023-12-29T09:37:23;9.20;1.00
51619;DHT22;38518;53.164;5.430;2023-12-29T09:39:48;9.20;1.00
51619;DHT22;38518;53.164;5.430;2023-12-29T09:42:20;9.30;4.10
51619;DHT22;38518;53.164;5.430;2023-12-29T09:44:50;9.30;5.10
51619;DHT22;38518;53.164;5.430;2023-12-29T09:47:20;9.20;1.00
51619;DHT22;38518;53.164;5.430;2023-12-29T09:49:49;9.30;1.00
51619;DHT22;38518;53.164;5.430;2023-12-29T09:52:16;9.30;1.00
51619;DHT22;38518;53.164;5.430;2023-12-29T09:54:42;9.20;1.00
51619;DHT22;38518;53.164;5.430;2023-12-29T09:57:09;9.30;1.00
51619;DHT22;38518;53.164;5.430;2023-12-29T09:59:35;9.40;1.00
51619;DHT22;38518;53.164;5.430;2023-12-29T10:02:13;9.20;1.00
51619;DHT22;38518;53.164;5.430;2023-12-29T10:04:39;9.20;1.00
51619;DHT22;38518;53.164;5.430;2023-12-29T10:07:06;9.10;1.00
51619;DHT22;38518;53.164;5.430;2023-12-29T10:09:34;9.10;1.00
51619;DHT22;38518;53.164;5.430;2023-12-29T10:12:03;9.10;1.00
51619;DHT22;38518;53.164;5.430;2023-12-29T10:14:48;9.10;1.00
51619;DHT22;38518;53.164;5.430;2023-12-29T10:20:43;9.00;1.00
51619;DHT22;38518;53.164;5.430;2023-12-29T10:23:11;9.00;1.00
51619;DHT22;38518;53.164;5.430;2023-12-29T10:25:39;9.00;1.00
51619;DHT22;38518;53.164;5.430;2023-12-29T10:28:09;8.90;1.00
51619;DHT22;38518;53.164;5.430;2023-12-29T10:30:35;9.20;1.00
51619;DHT22;38518;53.164;5.430;2023-12-29T10:33:01;9.00;1.00
51619;DHT22;38518;53.164;5.430;2023-12-29T10:35:29;9.00;1.00
51619;DHT22;38518;53.164;5.430;2023-12-29T10:38:08;9.10;1.00
51619;DHT22;38518;53.164;5.430;2023-12-29T10:40:35;9.20;1.00
51619;DHT22;38518;53.164;5.430;2023-12-29T10:43:00;9.30;1.00
51619;DHT22;38518;53.164;5.430;2023-12-29T10:45:32;9.40;1.00
51619;DHT22;38518;53.164;5.430;2023-12-29T10:48:00;9.50;1.00
51619;DHT22;38518;53.164;5.430;2023-12-29T10:50:26;9.60;1.00
51619;DHT22;38518;53.164;5.430;2023-12-29T10:53:13;9.80;1.00
51619;DHT22;38518;53.164;5.430;2023-12-29T10:55:39;9.90;1.00
51619;DHT22;38518;53.164;5.430;2023-12-29T10:58:05;10.00;1.00
51619;DHT22;38518;53.164;5.430;2023-12-29T11:00:32;10.20;1.00
51619;DHT22;38518;53.164;5.430;2023-12-29T11:03:00;10.40;1.00
51619;DHT22;38518;53.164;5.430;2023-12-29T11:05:27;10.50;1.00
51619;DHT22;38518;53.164;5.430;2023-12-29T11:07:54;10.80;1.00
51619;DHT22;38518;53.164;5.430;2023-12-29T11:10:21;11.00;1.00
51619;DHT22;38518;53.164;5.430;2023-12-29T11:12:48;11.40;1.00
51619;DHT22;38518;53.164;5.430;2023-12-29T11:15:15;11.80;1.00
51619;DHT22;38518;53.164;5.430;2023-12-29T11:17:44;12.20;1.00
51619;DHT22;38518;53.164;5.430;2023-12-29T11:20:15;12.30;1.00
51619;DHT22;38518;53.164;5.430;2023-12-29T11:22:42;12.30;1.00
51619;DHT22;38518;53.164;5.430;2023-12-29T11:25:09;11.80;1.00
51619;DHT22;38518;53.164;5.430;2023-12-29T11:27:35;11.60;1.00
51619;DHT22;38518;53.164;5.430;2023-12-29T11:30:03;11.80;1.00
51619;DHT22;38518;53.164;5.430;2023-12-29T11:32:49;12.20;1.00
51619;DHT22;38518;53.164;5.430;2023-12-29T11:43:17;13.40;1.00
51619;DHT22;38518;53.164;5.430;2023-12-29T11:45:43;13.70;1.00
51619;DHT22;38518;53.164;5.430;2023-12-29T11:48:09;13.80;1.00
51619;DHT22;38518;53.164;5.430;2023-12-29T11:50:38;14.00;1.00
51619;DHT22;38518;53.164;5.430;2023-12-29T11:53:06;13.80;1.00
51619;DHT22;38518;53.164;5.430;2023-12-29T11:55:39;13.00;1.00
51619;DHT22;38518;53.164;5.430;2023-12-29T11:58:24;12.20;1.00
51619;DHT22;38518;53.164;5.430;2023-12-29T12:00:50;11.50;1.00
51619;DHT22;38518;53.164;5.430;2023-12-29T12:03:27;11.10;1.00
51619;DHT22;38518;53.164;5.430;2023-12-29T12:05:55;11.80;1.00
51619;DHT22;38518;53.164;5.430;2023-12-29T12:08:35;10.20;1.00
51619;DHT22;38518;53.164;5.430;2023-12-29T12:13:57;10.00;1.00
51619;DHT22;38518;53.164;5.430;2023-12-29T12:19:11;9.60;1.00
51619;DHT22;38518;53.164;5.430;2023-12-29T12:21:38;10.60;1.00
51619;DHT22;38518;53.164;5.430;2023-12-29T12:24:04;9.50;1.00
51619;DHT22;38518;53.164;5.430;2023-12-29T12:26:33;9.40;1.00
51619;DHT22;38518;53.164;5.430;2023-12-29T12:29:00;9.40;1.00
51619;DHT22;38518;53.164;5.430;2023-12-29T12:31:26;9.30;1.00
51619;DHT22;38518;53.164;5.430;2023-12-29T12:33:58;9.30;1.00
51619;DHT22;38518;53.164;5.430;2023-12-29T12:36:26;9.30;1.00
51619;DHT22;38518;53.164;5.430;2023-12-29T12:38:58;9.30;1.00
51619;DHT22;38518;53.164;5.430;2023-12-29T12:41:25;9.30;1.00
51619;DHT22;38518;53.164;5.430;2023-12-29T12:44:13;9.20;1.00
51619;DHT22;38518;53.164;5.430;2023-12-29T12:49:14;9.20;1.00
51619;DHT22;38518;53.164;5.430;2023-12-29T12:51:41;9.10;1.00
51619;DHT22;38518;53.164;5.430;2023-12-29T12:54:08;9.10;1.00
51619;DHT22;38518;53.164;5.430;2023-12-29T12:56:35;9.10;1.00
51619;DHT22;38518;53.164;5.430;2023-12-29T12:59:02;9.10;1.00
51619;DHT22;38518;53.164;5.430;2023-12-29T13:01:28;9.10;1.00
51619;DHT22;38518;53.164;5.430;2023-12-29T13:03:57;9.10;1.00
51619;DHT22;38518;53.164;5.430;2023-12-29T13:06:24;8.20;1.00
51619;DHT22;38518;53.164;5.430;2023-12-29T13:08:50;9.00;1.00
51619;DHT22;38518;53.164;5.430;2023-12-29T13:11:21;9.30;1.00
51619;DHT22;38518;53.164;5.430;2023-12-29T13:13:53;9.00;1.00
51619;DHT22;38518;53.164;5.430;2023-12-29T13:16:34;8.90;1.00
51619;DHT22;38518;53.164;5.430;2023-12-29T13:19:23;8.90;1.00
51619;DHT22;38518;53.164;5.430;2023-12-29T13:21:55;8.90;1.00
51619;DHT22;38518;53.164;5.430;2023-12-29T13:24:22;8.90;1.00
51619;DHT22;38518;53.164;5.430;2023-12-29T13:26:51;8.90;1.00
51619;DHT22;38518;53.164;5.430;2023-12-29T13:29:21;8.90;1.00
51619;DHT22;38518;53.164;5.430;2023-12-29T13:31:48;8.90;1.00
51619;DHT22;38518;53.164;5.430;2023-12-29T13:34:27;8.90;1.00
51619;DHT22;38518;53.164;5.430;2023-12-29T13:37:07;8.90;1.00
51619;DHT22;38518;53.164;5.430;2023-12-29T13:39:55;8.90;1.00
51619;DHT22;38518;53.164;5.430;2023-12-29T13:42:23;8.90;1.00
51619;DHT22;38518;53.164;5.430;2023-12-29T13:44:50;8.90;1.00
51619;DHT22;38518;53.164;5.430;2023-12-29T13:47:17;9.00;1.00
51619;DHT22;38518;53.164;5.430;2023-12-29T13:49:43;9.00;1.00
51619;DHT22;38518;53.164;5.430;2023-12-29T13:52:09;9.00;1.00
51619;DHT22;38518;53.164;5.430;2023-12-29T13:54:43;8.90;1.00
51619;DHT22;38518;53.164;5.430;2023-12-29T13:57:10;8.90;1.00
51619;DHT22;38518;53.164;5.430;2023-12-29T13:59:36;8.90;1.00
51619;DHT22;38518;53.164;5.430;2023-12-29T14:02:26;8.80;1.00
51619;DHT22;38518;53.164;5.430;2023-12-29T14:08:31;8.80;1.00
51619;DHT22;38518;53.164;5.430;2023-12-29T14:10:35;8.80;1.00
51619;DHT22;38518;53.164;5.430;2023-12-29T14:13:15;8.70;1.00
51619;DHT22;38518;53.164;5.430;2023-12-29T14:15:45;8.70;1.00
51619;DHT22;38518;53.164;5.430;2023-12-29T14:20:57;8.70;1.00
51619;DHT22;38518;53.164;5.430;2023-12-29T14:23:23;9.70;1.00
51619;DHT22;38518;53.164;5.430;2023-12-29T14:25:49;8.60;1.00
51619;DHT22;38518;53.164;5.430;2023-12-29T14:28:16;7.40;1.00
51619;DHT22;38518;53.164;5.430;2023-12-29T14:30:42;8.60;1.00
51619;DHT22;38518;53.164;5.430;2023-12-29T14:33:08;8.60;1.00
51619;DHT22;38518;53.164;5.430;2023-12-29T14:35:34;8.60;1.00
51619;DHT22;38518;53.164;5.430;2023-12-29T14:38:01;8.60;1.00
51619;DHT22;38518;53.164;5.430;2023-12-29T14:40:27;8.60;1.00
51619;DHT22;38518;53.164;5.430;2023-12-29T14:42:53;8.60;1.00
51619;DHT22;38518;53.164;5.430;2023-12-29T14:45:19;8.60;1.00
51619;DHT22;38518;53.164;5.430;2023-12-29T14:47:45;8.60;1.00
51619;DHT22;38518;53.164;5.430;2023-12-29T14:50:11;8.60;1.00
51619;DHT22;38518;53.164;5.430;2023-12-29T14:52:37;8.60;1.00
51619;DHT22;38518;53.164;5.430;2023-12-29T14:55:03;8.70;1.00
51619;DHT22;38518;53.164;5.430;2023-12-29T14:57:29;8.60;1.00
51619;DHT22;38518;53.164;5.430;2023-12-29T14:59:55;8.70;1.00
51619;DHT22;38518;53.164;5.430;2023-12-29T15:02:21;8.60;1.00
51619;DHT22;38518;53.164;5.430;2023-12-29T15:04:47;8.60;1.00
51619;DHT22;38518;53.164;5.430;2023-12-29T15:07:15;8.60;1.00
51619;DHT22;38518;53.164;5.430;2023-12-29T15:09:41;8.60;1.00
51619;DHT22;38518;53.164;5.430;2023-12-29T15:12:07;8.70;1.00
51619;DHT22;38518;53.164;5.430;2023-12-29T15:14:33;8.50;1.00
51619;DHT22;38518;53.164;5.430;2023-12-29T15:16:59;8.50;1.00
51619;DHT22;38518;53.164;5.430;2023-12-29T15:19:24;8.70;1.00
51619;DHT22;38518;53.164;5.430;2023-12-29T15:21:50;8.60;1.00
51619;DHT22;38518;53.164;5.430;2023-12-29T15:24:19;8.60;1.00
51619;DHT22;38518;53.164;5.430;2023-12-29T15:26:46;8.50;1.00
51619;DHT22;38518;53.164;5.430;2023-12-29T15:29:11;8.50;1.00
51619;DHT22;38518;53.164;5.430;2023-12-29T15:31:37;8.50;1.00
51619;DHT22;38518;53.164;5.430;2023-12-29T15:34:03;8.50;1.00
51619;DHT22;38518;53.164;5.430;2023-12-29T15:36:29;8.50;1.00
51619;DHT22;38518;53.164;5.430;2023-12-29T15:38:55;8.50;1.00
51619;DHT22;38518;53.164;5.430;2023-12-29T15:41:23;8.50;1.00
51619;DHT22;38518;53.164;5.430;2023-12-29T15:43:49;8.40;1.00
51619;DHT22;38518;53.164;5.430;2023-12-29T15:46:16;8.40;1.00
51619;DHT22;38518;53.164;5.430;2023-12-29T15:48:43;8.50;1.00
51619;DHT22;38518;53.164;5.430;2023-12-29T15:51:10;8.50;1.00
51619;DHT22;38518;53.164;5.430;2023-12-29T15:53:36;8.40;1.00
51619;DHT22;38518;53.164;5.430;2023-12-29T15:56:02;8.50;1.00
51619;DHT22;38518;53.164;5.430;2023-12-29T15:58:28;8.50;1.00
51619;DHT22;38518;53.164;5.430;2023-12-29T16:00:54;8.50;1.00
51619;DHT22;38518;53.164;5.430;2023-12-29T16:03:20;8.50;1.00
51619;DHT22;38518;53.164;5.430;2023-12-29T16:05:45;8.50;1.00
51619;DHT22;38518;53.164;5.430;2023-12-29T16:08:11;8.50;1.00
51619;DHT22;38518;53.164;5.430;2023-12-29T16:10:37;8.50;1.00
51619;DHT22;38518;53.164;5.430;2023-12-29T16:13:03;8.40;1.00
51619;DHT22;38518;53.164;5.430;2023-12-29T16:15:29;8.40;1.00
51619;DHT22;38518;53.164;5.430;2023-12-29T16:17:56;8.90;1.00
51619;DHT22;38518;53.164;5.430;2023-12-29T16:20:21;8.40;1.00
51619;DHT22;38518;53.164;5.430;2023-12-29T16:22:47;8.90;1.00